createdAt,value
2017-06-12T00:00:37.084Z,0
2017-06-12T00:01:17.676Z,0
2017-06-12T00:01:58.148Z,0
2017-06-12T00:02:38.626Z,0
2017-06-12T00:03:19.153Z,0
2017-06-12T00:03:59.658Z,0
2017-06-12T00:04:40.152Z,0
2017-06-12T00:05:20.643Z,0
2017-06-12T00:06:01.141Z,0
2017-06-12T00:06:41.674Z,0
2017-06-12T00:07:22.139Z,0
2017-06-12T00:08:02.665Z,0
2017-06-12T00:08:43.153Z,0
2017-06-12T00:09:23.640Z,0
2017-06-12T00:10:04.146Z,0
2017-06-12T00:10:44.695Z,0
2017-06-12T00:11:25.164Z,0
2017-06-12T00:12:05.700Z,0
2017-06-12T00:12:46.227Z,0
2017-06-12T00:13:26.689Z,0
2017-06-12T00:14:07.227Z,0
2017-06-12T00:14:47.716Z,0
2017-06-12T00:15:28.243Z,0
2017-06-12T00:16:08.707Z,0
2017-06-12T00:16:49.256Z,0
2017-06-12T00:17:29.799Z,0
2017-06-12T00:18:10.272Z,0
2017-06-12T00:18:50.791Z,0
2017-06-12T00:19:31.317Z,0
2017-06-12T00:20:11.814Z,0
2017-06-12T00:20:52.320Z,0
2017-06-12T00:21:32.806Z,0
2017-06-12T00:22:13.322Z,0
2017-06-12T00:22:53.823Z,0
2017-06-12T00:23:34.252Z,0
2017-06-12T00:24:14.846Z,0
2017-06-12T00:24:55.352Z,0
2017-06-12T00:25:35.894Z,0
2017-06-12T00:26:16.366Z,0
2017-06-12T00:26:56.911Z,0
2017-06-12T00:27:37.349Z,0
2017-06-12T00:28:17.890Z,0
2017-06-12T00:28:58.382Z,0
2017-06-12T00:29:38.882Z,0
2017-06-12T00:30:19.402Z,0
2017-06-12T00:30:59.871Z,0
2017-06-12T00:31:40.369Z,0
2017-06-12T00:32:20.914Z,0
2017-06-12T00:33:02.036Z,0
2017-06-12T00:33:42.537Z,0
2017-06-12T00:34:23.031Z,0
2017-06-12T00:35:03.528Z,0
2017-06-12T00:35:44.087Z,0
2017-06-12T00:36:24.574Z,0
2017-06-12T00:37:05.043Z,0
2017-06-12T00:37:45.585Z,0
2017-06-12T00:38:26.062Z,0
2017-06-12T00:39:06.581Z,0
2017-06-12T00:39:47.116Z,0
2017-06-12T00:40:27.615Z,0
2017-06-12T00:41:08.094Z,0
2017-06-12T00:41:48.556Z,0
2017-06-12T00:42:29.046Z,0
2017-06-12T00:43:09.545Z,0
2017-06-12T00:43:50.102Z,0
2017-06-12T00:44:30.588Z,0
2017-06-12T00:45:11.124Z,0
2017-06-12T00:45:51.828Z,0
2017-06-12T00:46:32.322Z,0
2017-06-12T00:47:12.806Z,0
2017-06-12T00:47:53.312Z,0
2017-06-12T00:48:33.798Z,0
2017-06-12T00:49:14.282Z,0
2017-06-12T00:49:54.793Z,0
2017-06-12T00:50:35.278Z,0
2017-06-12T00:51:15.822Z,0
2017-06-12T00:51:56.297Z,0
2017-06-12T00:52:36.851Z,0
2017-06-12T00:53:17.354Z,0
2017-06-12T00:53:57.851Z,0
2017-06-12T00:54:38.345Z,0
2017-06-12T00:55:18.849Z,0
2017-06-12T00:55:59.355Z,0
2017-06-12T00:56:39.902Z,0
2017-06-12T00:57:20.412Z,0
2017-06-12T00:58:00.902Z,0
2017-06-12T00:58:41.394Z,0
2017-06-12T00:59:21.893Z,0
2017-06-12T01:00:02.421Z,0
2017-06-12T01:00:42.921Z,0
2017-06-12T01:01:23.428Z,0
2017-06-12T01:02:03.924Z,0
2017-06-12T01:02:44.473Z,0
2017-06-12T01:03:24.944Z,0
2017-06-12T01:04:05.473Z,0
2017-06-12T01:04:45.983Z,0
2017-06-12T01:05:26.512Z,0
2017-06-12T01:06:06.977Z,0
2017-06-12T01:06:47.446Z,0
2017-06-12T01:07:27.959Z,0
2017-06-12T01:08:08.472Z,0
2017-06-12T01:08:49.086Z,0
2017-06-12T01:09:29.513Z,0
2017-06-12T01:10:10.016Z,0
2017-06-12T01:10:50.466Z,0
2017-06-12T01:11:31.038Z,0
2017-06-12T01:12:11.533Z,0
2017-06-12T01:12:52.064Z,0
2017-06-12T01:13:32.545Z,0
2017-06-12T01:14:13.067Z,0
2017-06-12T01:14:53.554Z,0
2017-06-12T01:15:34.038Z,0
2017-06-12T01:16:14.533Z,0
2017-06-12T01:16:55.059Z,0
2017-06-12T01:17:35.553Z,0
2017-06-12T01:18:16.047Z,0
2017-06-12T01:18:56.571Z,0
2017-06-12T01:19:37.084Z,0
2017-06-12T01:20:17.571Z,0
2017-06-12T01:20:58.101Z,0
2017-06-12T01:21:38.571Z,0
2017-06-12T01:22:19.106Z,0
2017-06-12T01:22:59.565Z,0
2017-06-12T01:23:40.080Z,0
2017-06-12T01:24:20.570Z,0
2017-06-12T01:25:01.058Z,0
2017-06-12T01:25:41.613Z,0
2017-06-12T01:26:22.087Z,0
2017-06-12T01:27:02.597Z,0
2017-06-12T01:27:43.104Z,0
2017-06-12T01:28:23.563Z,0
2017-06-12T01:29:04.079Z,0
2017-06-12T01:29:44.581Z,0
2017-06-12T01:30:25.105Z,0
2017-06-12T01:31:05.547Z,0
2017-06-12T01:31:46.083Z,0
2017-06-12T01:32:26.554Z,0
2017-06-12T01:33:07.074Z,0
2017-06-12T01:33:47.618Z,0
2017-06-12T01:34:28.089Z,0
2017-06-12T01:35:08.572Z,0
2017-06-12T01:35:49.121Z,0
2017-06-12T01:36:29.611Z,0
2017-06-12T01:37:10.098Z,0
2017-06-12T01:37:50.599Z,0
2017-06-12T01:38:31.085Z,0
2017-06-12T01:39:11.587Z,0
2017-06-12T01:39:52.097Z,0
2017-06-12T01:40:32.581Z,0
2017-06-12T01:41:13.097Z,0
2017-06-12T01:41:53.588Z,0
2017-06-12T01:42:34.062Z,0
2017-06-12T01:43:14.543Z,0
2017-06-12T01:43:55.111Z,0
2017-06-12T01:44:35.569Z,0
2017-06-12T01:45:16.093Z,0
2017-06-12T01:45:56.624Z,0
2017-06-12T01:46:37.148Z,0
2017-06-12T01:47:17.668Z,0
2017-06-12T01:47:58.141Z,0
2017-06-12T01:48:38.643Z,0
2017-06-12T01:49:19.142Z,0
2017-06-12T01:49:59.649Z,0
2017-06-12T01:50:40.141Z,0
2017-06-12T01:51:20.669Z,0
2017-06-12T01:52:01.150Z,0
2017-06-12T01:52:41.652Z,0
2017-06-12T01:53:22.146Z,0
2017-06-12T01:54:02.606Z,0
2017-06-12T01:54:43.113Z,0
2017-06-12T01:55:23.605Z,0
2017-06-12T01:56:04.094Z,0
2017-06-12T01:56:44.624Z,0
2017-06-12T01:59:02.965Z,0
2017-06-12T01:59:43.483Z,0
2017-06-12T02:00:24.004Z,0
2017-06-12T02:01:04.525Z,0
2017-06-12T02:01:45.040Z,0
2017-06-12T02:02:25.577Z,0
2017-06-12T02:03:06.093Z,0
2017-06-12T02:03:46.629Z,0
2017-06-12T02:04:27.151Z,0
2017-06-12T02:05:07.685Z,0
2017-06-12T02:05:48.226Z,0
2017-06-12T02:06:28.727Z,0
2017-06-12T02:07:09.243Z,0
2017-06-12T02:07:49.783Z,0
2017-06-12T02:08:30.304Z,0
2017-06-12T02:09:10.825Z,0
2017-06-12T02:09:51.338Z,0
2017-06-12T02:10:31.882Z,0
2017-06-12T02:11:12.375Z,0
2017-06-12T02:11:52.896Z,0
2017-06-12T02:12:33.437Z,0
2017-06-12T02:13:13.962Z,0
2017-06-12T02:13:54.477Z,0
2017-06-12T02:14:35.007Z,0
2017-06-12T02:15:15.531Z,0
2017-06-12T02:15:56.036Z,0
2017-06-12T02:16:36.567Z,0
2017-06-12T02:17:17.094Z,0
2017-06-12T02:17:57.632Z,0
2017-06-12T02:18:38.150Z,0
2017-06-12T02:19:18.676Z,0
2017-06-12T02:19:59.202Z,0
2017-06-12T02:20:39.736Z,0
2017-06-12T02:21:20.273Z,0
2017-06-12T02:22:00.786Z,0
2017-06-12T02:22:41.310Z,0
2017-06-12T02:23:21.819Z,0
2017-06-12T02:24:02.345Z,0
2017-06-12T02:24:42.863Z,0
2017-06-12T02:25:23.401Z,0
2017-06-12T02:26:03.916Z,0
2017-06-12T02:26:44.433Z,0
2017-06-12T02:27:24.968Z,0
2017-06-12T02:28:05.500Z,0
2017-06-12T02:28:46.054Z,0
2017-06-12T02:29:26.551Z,0
2017-06-12T02:30:07.076Z,0
2017-06-12T02:30:47.542Z,0
2017-06-12T02:31:28.079Z,0
2017-06-12T02:32:08.564Z,0
2017-06-12T02:32:49.078Z,0
2017-06-12T02:33:29.537Z,0
2017-06-12T02:34:10.062Z,0
2017-06-12T02:34:50.573Z,0
2017-06-12T02:35:31.088Z,0
2017-06-12T02:36:11.613Z,0
2017-06-12T02:36:52.145Z,0
2017-06-12T02:37:32.661Z,0
2017-06-12T02:38:13.195Z,0
2017-06-12T02:38:53.713Z,0
2017-06-12T02:39:34.204Z,0
2017-06-12T02:40:14.722Z,0
2017-06-12T02:40:55.232Z,0
2017-06-12T02:41:35.710Z,0
2017-06-12T02:42:16.254Z,0
2017-06-12T02:42:56.761Z,0
2017-06-12T02:43:37.232Z,0
2017-06-12T02:44:17.773Z,0
2017-06-12T02:44:58.255Z,0
2017-06-12T02:45:38.771Z,0
2017-06-12T02:46:19.249Z,0
2017-06-12T02:46:59.825Z,0
2017-06-12T02:47:40.222Z,0
2017-06-12T02:48:20.718Z,0
2017-06-12T02:49:01.211Z,0
2017-06-12T02:49:41.745Z,0
2017-06-12T02:50:22.239Z,0
2017-06-12T02:51:02.696Z,4
2017-06-12T02:51:43.198Z,4
2017-06-12T02:52:23.684Z,4
2017-06-12T02:53:04.181Z,4
2017-06-12T02:53:44.637Z,4
2017-06-12T02:54:25.136Z,0
2017-06-12T02:55:05.681Z,0
2017-06-12T02:55:46.138Z,4
2017-06-12T02:56:26.640Z,4
2017-06-12T02:57:07.134Z,4
2017-06-12T02:57:47.595Z,4
2017-06-12T02:58:28.142Z,4
2017-06-12T02:59:08.615Z,4
2017-06-12T02:59:49.087Z,4
2017-06-12T03:00:29.600Z,4
2017-06-12T03:01:10.077Z,4
2017-06-12T03:01:50.580Z,4
2017-06-12T03:02:31.062Z,4
2017-06-12T03:03:11.570Z,4
2017-06-12T03:03:52.050Z,4
2017-06-12T03:04:32.582Z,4
2017-06-12T03:05:13.101Z,4
2017-06-12T03:05:53.600Z,4
2017-06-12T03:06:34.103Z,0
2017-06-12T03:07:14.566Z,4
2017-06-12T03:07:55.087Z,4
2017-06-12T03:08:35.578Z,4
2017-06-12T03:09:16.095Z,8
2017-06-12T03:09:56.602Z,8
2017-06-12T03:10:37.090Z,8
2017-06-12T03:11:17.587Z,8
2017-06-12T03:11:58.088Z,8
2017-06-12T03:12:38.567Z,8
2017-06-12T03:13:19.051Z,12
2017-06-12T03:13:59.561Z,12
2017-06-12T03:14:40.026Z,12
2017-06-12T03:15:20.504Z,12
2017-06-12T03:16:01.041Z,12
2017-06-12T03:16:41.548Z,12
2017-06-12T03:17:22.064Z,8
2017-06-12T03:18:02.574Z,12
2017-06-12T03:18:43.019Z,12
2017-06-12T03:19:23.516Z,12
2017-06-12T03:20:04.034Z,16
2017-06-12T03:20:44.510Z,16
2017-06-12T03:21:24.995Z,16
2017-06-12T03:22:05.494Z,16
2017-06-12T03:22:46.031Z,16
2017-06-12T03:23:26.507Z,16
2017-06-12T03:24:07.038Z,20
2017-06-12T03:24:47.530Z,20
2017-06-12T03:25:28.038Z,20
2017-06-12T03:26:08.521Z,24
2017-06-12T03:26:49.237Z,24
2017-06-12T03:27:29.693Z,24
2017-06-12T03:28:10.198Z,24
2017-06-12T03:28:50.695Z,28
2017-06-12T03:29:31.179Z,28
2017-06-12T03:30:11.699Z,32
2017-06-12T03:30:52.173Z,32
2017-06-12T03:31:32.703Z,36
2017-06-12T03:32:13.208Z,36
2017-06-12T03:32:53.727Z,32
2017-06-12T03:33:34.250Z,32
2017-06-12T03:34:14.717Z,32
2017-06-12T03:34:55.293Z,28
2017-06-12T03:35:35.743Z,28
2017-06-12T03:36:16.256Z,32
2017-06-12T03:36:56.726Z,28
2017-06-12T03:37:37.248Z,28
2017-06-12T03:38:17.760Z,28
2017-06-12T03:38:58.276Z,28
2017-06-12T03:39:38.784Z,24
2017-06-12T03:40:19.305Z,24
2017-06-12T03:40:59.836Z,24
2017-06-12T03:41:40.347Z,28
2017-06-12T03:42:20.891Z,28
2017-06-12T03:43:01.387Z,24
2017-06-12T03:43:41.897Z,24
2017-06-12T03:44:22.397Z,24
2017-06-12T03:45:02.897Z,24
2017-06-12T03:45:43.407Z,28
2017-06-12T03:46:23.943Z,32
2017-06-12T03:47:04.464Z,36
2017-06-12T03:47:44.997Z,40
2017-06-12T03:48:25.508Z,48
2017-06-12T03:49:06.039Z,48
2017-06-12T03:49:46.568Z,52
2017-06-12T03:50:27.087Z,52
2017-06-12T03:51:07.612Z,52
2017-06-12T03:51:48.138Z,48
2017-06-12T03:52:28.662Z,48
2017-06-12T03:53:09.203Z,48
2017-06-12T03:53:49.691Z,56
2017-06-12T03:54:30.241Z,68
2017-06-12T03:55:10.737Z,84
2017-06-12T03:55:51.261Z,96
2017-06-12T03:56:31.755Z,104
2017-06-12T03:57:12.266Z,104
2017-06-12T03:57:52.794Z,108
2017-06-12T03:58:33.300Z,112
2017-06-12T03:59:13.749Z,112
2017-06-12T03:59:54.234Z,108
2017-06-12T04:00:34.743Z,112
2017-06-12T04:01:15.241Z,120
2017-06-12T04:01:55.712Z,120
2017-06-12T04:02:36.261Z,128
2017-06-12T04:03:16.738Z,136
2017-06-12T04:03:57.231Z,136
2017-06-12T04:04:37.703Z,144
2017-06-12T04:05:18.230Z,164
2017-06-12T04:05:58.745Z,188
2017-06-12T04:06:39.242Z,208
2017-06-12T04:07:19.741Z,212
2017-06-12T04:08:00.191Z,220
2017-06-12T04:08:40.679Z,224
2017-06-12T04:09:21.161Z,232
2017-06-12T04:10:01.686Z,256
2017-06-12T04:10:42.162Z,276
2017-06-12T04:11:22.751Z,280
2017-06-12T04:12:03.229Z,272
2017-06-12T04:12:43.740Z,256
2017-06-12T04:13:24.203Z,248
2017-06-12T04:14:04.717Z,244
2017-06-12T04:14:45.246Z,248
2017-06-12T04:15:25.737Z,256
2017-06-12T04:16:06.195Z,268
2017-06-12T04:16:46.690Z,272
2017-06-12T04:17:27.202Z,280
2017-06-12T04:18:07.684Z,276
2017-06-12T04:18:48.158Z,272
2017-06-12T04:19:28.674Z,264
2017-06-12T04:20:09.182Z,256
2017-06-12T04:20:49.662Z,240
2017-06-12T04:21:30.156Z,232
2017-06-12T04:22:10.688Z,236
2017-06-12T04:22:51.156Z,240
2017-06-12T04:23:31.654Z,260
2017-06-12T04:24:12.187Z,272
2017-06-12T04:24:52.668Z,276
2017-06-12T04:25:33.149Z,280
2017-06-12T04:26:13.634Z,284
2017-06-12T04:26:54.190Z,292
2017-06-12T04:27:34.656Z,308
2017-06-12T04:28:15.178Z,340
2017-06-12T04:28:55.681Z,372
2017-06-12T04:29:36.192Z,388
2017-06-12T04:30:16.710Z,372
2017-06-12T04:30:57.189Z,348
2017-06-12T04:31:37.680Z,336
2017-06-12T04:32:18.201Z,348
2017-06-12T04:32:58.677Z,380
2017-06-12T04:33:39.204Z,424
2017-06-12T04:34:19.733Z,532
2017-06-12T04:35:00.189Z,656
2017-06-12T04:35:40.672Z,768
2017-06-12T04:36:21.179Z,812
2017-06-12T04:37:01.676Z,760
2017-06-12T04:37:42.174Z,636
2017-06-12T04:38:22.669Z,544
2017-06-12T04:39:03.217Z,524
2017-06-12T04:39:43.694Z,532
2017-06-12T04:40:24.223Z,528
2017-06-12T04:41:04.697Z,524
2017-06-12T04:41:45.191Z,556
2017-06-12T04:42:25.770Z,608
2017-06-12T04:43:06.260Z,644
2017-06-12T04:43:46.779Z,640
2017-06-12T04:44:27.267Z,612
2017-06-12T04:45:07.729Z,600
2017-06-12T04:45:48.251Z,596
2017-06-12T04:46:28.740Z,588
2017-06-12T04:47:09.226Z,584
2017-06-12T04:47:49.902Z,584
2017-06-12T04:48:30.215Z,592
2017-06-12T04:49:10.761Z,624
2017-06-12T04:49:51.234Z,668
2017-06-12T04:50:31.695Z,736
2017-06-12T04:51:12.217Z,812
2017-06-12T04:51:52.720Z,816
2017-06-12T04:52:33.226Z,796
2017-06-12T04:53:13.722Z,776
2017-06-12T04:53:54.222Z,768
2017-06-12T04:54:34.778Z,892
2017-06-12T04:55:15.231Z,1000
2017-06-12T04:55:55.727Z,1036
2017-06-12T04:56:36.219Z,1096
2017-06-12T04:57:16.721Z,1328
2017-06-12T04:57:57.216Z,1868
2017-06-12T04:58:37.760Z,2452
2017-06-12T04:59:18.243Z,2976
2017-06-12T04:59:58.773Z,3684
2017-06-12T05:00:39.278Z,4260
2017-06-12T05:01:19.764Z,4720
2017-06-12T05:02:00.290Z,5324
2017-06-12T05:02:40.961Z,5928
2017-06-12T05:03:21.303Z,6168
2017-06-12T05:04:01.841Z,6048
2017-06-12T05:04:42.320Z,5796
2017-06-12T05:07:00.698Z,2828
2017-06-12T05:07:41.234Z,1832
2017-06-12T05:08:21.760Z,1308
2017-06-12T05:09:02.291Z,1072
2017-06-12T05:09:42.836Z,924
2017-06-12T05:10:23.359Z,932
2017-06-12T05:11:03.884Z,1188
2017-06-12T05:11:44.415Z,1632
2017-06-12T05:12:24.959Z,1988
2017-06-12T05:13:05.487Z,2364
2017-06-12T05:13:46.043Z,2684
2017-06-12T05:14:26.559Z,3252
2017-06-12T05:15:07.086Z,3476
2017-06-12T05:15:47.612Z,3372
2017-06-12T05:16:28.130Z,3260
2017-06-12T05:17:08.677Z,3068
2017-06-12T05:17:49.186Z,2752
2017-06-12T05:18:29.728Z,2432
2017-06-12T05:19:10.269Z,2052
2017-06-12T05:19:50.783Z,1720
2017-06-12T05:20:31.286Z,1748
2017-06-12T05:21:11.810Z,2120
2017-06-12T05:21:52.361Z,2520
2017-06-12T05:22:32.903Z,2480
2017-06-12T05:23:13.434Z,2472
2017-06-12T05:23:53.959Z,2204
2017-06-12T05:24:34.491Z,1944
2017-06-12T05:25:15.253Z,2004
2017-06-12T05:25:55.777Z,2064
2017-06-12T05:26:36.240Z,2088
2017-06-12T05:27:16.779Z,2244
2017-06-12T05:27:57.257Z,2792
2017-06-12T05:28:37.910Z,3264
2017-06-12T05:29:18.442Z,3028
2017-06-12T05:29:58.938Z,2688
2017-06-12T05:30:39.446Z,2284
2017-06-12T05:31:19.927Z,2144
2017-06-12T05:32:00.390Z,1904
2017-06-12T05:32:40.957Z,1540
2017-06-12T05:33:22.653Z,1324
2017-06-12T05:34:07.915Z,1232
2017-06-12T05:34:48.039Z,1236
2017-06-12T05:35:29.096Z,1464
2017-06-12T05:36:09.565Z,1684
2017-06-12T05:36:50.081Z,1700
2017-06-12T05:37:30.531Z,1820
2017-06-12T05:38:11.007Z,2176
2017-06-12T05:38:51.522Z,2624
2017-06-12T05:39:32.074Z,3100
2017-06-12T05:40:12.601Z,3816
2017-06-12T05:42:31.733Z,4824
2017-06-12T05:43:12.288Z,4104
2017-06-12T05:43:52.810Z,4148
2017-06-12T05:44:33.324Z,4908
2017-06-12T05:45:14.044Z,5572
2017-06-12T05:45:55.743Z,6220
2017-06-12T05:46:36.017Z,6400
2017-06-12T05:47:16.479Z,6284
2017-06-12T05:47:56.989Z,6440
2017-06-12T05:48:37.705Z,6460
2017-06-12T05:49:18.220Z,7004
2017-06-12T05:49:59.379Z,6168
2017-06-12T05:50:39.892Z,4560
2017-06-12T05:51:20.348Z,3948
2017-06-12T05:52:00.819Z,4028
2017-06-12T05:52:41.342Z,3980
2017-06-12T05:53:21.864Z,3788
2017-06-12T05:54:02.357Z,3644
2017-06-12T05:54:42.849Z,3580
2017-06-12T05:55:23.364Z,3176
2017-06-12T05:56:04.835Z,2960
2017-06-12T05:56:46.251Z,2968
2017-06-12T05:57:26.762Z,3512
2017-06-12T05:58:07.224Z,3484
2017-06-12T05:58:47.767Z,3388
2017-06-12T05:59:28.279Z,3412
2017-06-12T06:00:08.834Z,3544
2017-06-12T06:00:49.268Z,3756
2017-06-12T06:01:29.797Z,3832
2017-06-12T06:02:10.331Z,3584
2017-06-12T06:02:50.773Z,3112
2017-06-12T06:03:31.283Z,2724
2017-06-12T06:04:11.791Z,2424
2017-06-12T06:04:52.309Z,2148
2017-06-12T06:05:32.790Z,2056
2017-06-12T06:06:13.285Z,1932
2017-06-12T06:06:53.872Z,1872
2017-06-12T06:07:34.300Z,1844
2017-06-12T06:08:14.816Z,1864
2017-06-12T06:08:55.342Z,2088
2017-06-12T06:09:35.791Z,2416
2017-06-12T06:10:16.280Z,2864
2017-06-12T06:10:56.791Z,2864
2017-06-12T06:11:37.294Z,2560
2017-06-12T06:12:17.786Z,2368
2017-06-12T06:12:58.288Z,2424
2017-06-12T06:13:38.754Z,2384
2017-06-12T06:14:19.348Z,2248
2017-06-12T06:14:59.833Z,2276
2017-06-12T06:15:40.369Z,2544
2017-06-12T06:16:20.905Z,2760
2017-06-12T06:17:01.390Z,3088
2017-06-12T06:17:41.934Z,3092
2017-06-12T06:18:22.404Z,2772
2017-06-12T06:19:02.954Z,2636
2017-06-12T06:19:43.402Z,2668
2017-06-12T06:20:23.963Z,2696
2017-06-12T06:21:04.410Z,2552
2017-06-12T06:21:44.904Z,2792
2017-06-12T06:22:25.434Z,3156
2017-06-12T06:23:06.031Z,3308
2017-06-12T06:23:46.560Z,2956
2017-06-12T06:24:27.048Z,2780
2017-06-12T06:25:07.795Z,2772
2017-06-12T06:25:48.252Z,2944
2017-06-12T06:26:28.852Z,3116
2017-06-12T06:27:09.326Z,3248
2017-06-12T06:27:49.775Z,3616
2017-06-12T06:28:30.252Z,3184
2017-06-12T06:29:10.784Z,3488
2017-06-12T06:29:51.258Z,3832
2017-06-12T06:30:31.752Z,3676
2017-06-12T06:31:12.234Z,3548
2017-06-12T06:31:52.772Z,3600
2017-06-12T06:32:33.234Z,3384
2017-06-12T06:33:13.746Z,3788
2017-06-12T06:33:54.229Z,3716
2017-06-12T06:34:34.859Z,3836
2017-06-12T06:35:15.358Z,4984
2017-06-12T06:35:55.859Z,6560
2017-06-12T06:36:36.371Z,5352
2017-06-12T06:37:16.834Z,4620
2017-06-12T06:37:57.396Z,3220
2017-06-12T06:38:37.826Z,2912
2017-06-12T06:39:18.350Z,2408
2017-06-12T06:39:58.861Z,2264
2017-06-12T06:40:39.408Z,2344
2017-06-12T06:41:19.993Z,2372
2017-06-12T06:42:00.495Z,2324
2017-06-12T06:42:40.996Z,2220
2017-06-12T06:43:21.508Z,2180
2017-06-12T06:44:01.988Z,2240
2017-06-12T06:44:42.596Z,2288
2017-06-12T06:45:23.071Z,2260
2017-06-12T06:46:03.648Z,2128
2017-06-12T06:46:44.203Z,2152
2017-06-12T06:47:24.781Z,2136
2017-06-12T06:48:05.259Z,2124
2017-06-12T06:48:45.764Z,2092
2017-06-12T06:49:26.279Z,2052
2017-06-12T06:50:06.804Z,1992
2017-06-12T06:50:47.348Z,1940
2017-06-12T06:51:27.847Z,1900
2017-06-12T06:52:08.352Z,1896
2017-06-12T06:52:49.017Z,1956
2017-06-12T06:53:29.510Z,1956
2017-06-12T06:54:10.005Z,1892
2017-06-12T06:54:50.505Z,1848
2017-06-12T06:55:31.105Z,1768
2017-06-12T06:56:11.624Z,1744
2017-06-12T06:56:52.100Z,1928
2017-06-12T06:57:32.588Z,2016
2017-06-12T06:58:13.191Z,2092
2017-06-12T06:58:53.728Z,1984
2017-06-12T06:59:34.271Z,1828
2017-06-12T07:00:14.704Z,1868
2017-06-12T07:00:55.208Z,2028
2017-06-12T07:01:35.742Z,2104
2017-06-12T07:02:16.232Z,2012
2017-06-12T07:02:56.712Z,1924
2017-06-12T07:03:37.191Z,1760
2017-06-12T07:04:17.702Z,1576
2017-06-12T07:04:58.198Z,1476
2017-06-12T07:05:38.797Z,1440
2017-06-12T07:06:19.324Z,1436
2017-06-12T07:06:59.887Z,1608
2017-06-12T07:07:40.458Z,1712
2017-06-12T07:08:20.901Z,1688
2017-06-12T07:09:01.434Z,1632
2017-06-12T07:09:41.885Z,1628
2017-06-12T07:10:22.406Z,1600
2017-06-12T07:11:02.928Z,1592
2017-06-12T07:11:44.033Z,1512
2017-06-12T07:12:24.629Z,1540
2017-06-12T07:13:05.103Z,1488
2017-06-12T07:13:45.631Z,1360
2017-06-12T07:14:26.094Z,1260
2017-06-12T07:15:06.662Z,1244
2017-06-12T07:15:47.105Z,1356
2017-06-12T07:16:27.656Z,1752
2017-06-12T07:17:08.134Z,1948
2017-06-12T07:17:48.696Z,2320
2017-06-12T07:18:29.307Z,2880
2017-06-12T07:19:09.845Z,3264
2017-06-12T07:19:50.285Z,3060
2017-06-12T07:20:30.775Z,2360
2017-06-12T07:21:11.312Z,1832
2017-06-12T07:21:51.808Z,1588
2017-06-12T07:22:32.362Z,1632
2017-06-12T07:23:12.808Z,1788
2017-06-12T07:23:53.317Z,1976
2017-06-12T07:24:33.785Z,2220
2017-06-12T07:25:14.252Z,2172
2017-06-12T07:25:54.758Z,2128
2017-06-12T07:26:35.251Z,1980
2017-06-12T07:27:16.080Z,1844
2017-06-12T07:27:56.508Z,1684
2017-06-12T07:28:36.971Z,1480
2017-06-12T07:29:17.421Z,1372
2017-06-12T07:29:57.971Z,1392
2017-06-12T07:30:38.491Z,1568
2017-06-12T07:31:19.000Z,1872
2017-06-12T07:31:59.488Z,1928
2017-06-12T07:32:39.978Z,1684
2017-06-12T07:33:20.499Z,1408
2017-06-12T07:34:01.018Z,1236
2017-06-12T07:34:41.518Z,1132
2017-06-12T07:35:22.061Z,1236
2017-06-12T07:36:02.460Z,1400
2017-06-12T07:36:44.459Z,1348
2017-06-12T07:37:24.946Z,1296
2017-06-12T07:38:05.463Z,1300
2017-06-12T07:38:46.261Z,1216
2017-06-12T07:39:26.682Z,1108
2017-06-12T07:40:07.191Z,1020
2017-06-12T07:40:47.682Z,956
2017-06-12T07:41:28.193Z,900
2017-06-12T07:42:08.680Z,828
2017-06-12T07:42:49.277Z,720
2017-06-12T07:43:29.860Z,632
2017-06-12T07:44:10.416Z,608
2017-06-12T07:44:50.930Z,632
2017-06-12T07:45:31.407Z,616
2017-06-12T07:46:12.104Z,628
2017-06-12T07:46:52.613Z,668
2017-06-12T07:47:33.355Z,704
2017-06-12T07:48:13.951Z,744
2017-06-12T07:48:54.450Z,912
2017-06-12T07:49:34.961Z,1104
2017-06-12T07:50:15.479Z,1324
2017-06-12T07:50:56.011Z,1464
2017-06-12T07:51:36.585Z,1364
2017-06-12T07:52:17.010Z,1232
2017-06-12T07:52:57.499Z,1264
2017-06-12T07:53:38.034Z,1440
2017-06-12T07:54:18.509Z,1560
2017-06-12T07:54:59.012Z,1680
2017-06-12T07:55:39.671Z,1712
2017-06-12T07:56:20.502Z,1608
2017-06-12T07:57:00.976Z,1460
2017-06-12T07:57:41.610Z,1364
2017-06-12T07:58:22.183Z,1388
2017-06-12T07:59:02.887Z,1428
2017-06-12T08:01:16.346Z,1712
2017-06-12T08:01:56.949Z,2004
2017-06-12T08:02:37.467Z,1980
2017-06-12T08:03:17.964Z,1796
2017-06-12T08:03:58.464Z,1676
2017-06-12T08:04:38.976Z,1652
2017-06-12T08:05:19.438Z,1700
2017-06-12T08:05:59.966Z,1860
2017-06-12T08:06:40.431Z,2036
2017-06-12T08:07:20.932Z,2012
2017-06-12T08:08:01.391Z,1952
2017-06-12T08:08:41.872Z,1988
2017-06-12T08:09:22.380Z,1964
2017-06-12T08:10:02.883Z,1996
2017-06-12T08:10:43.441Z,2048
2017-06-12T08:11:23.921Z,2320
2017-06-12T08:12:04.461Z,2748
2017-06-12T08:12:44.876Z,2628
2017-06-12T08:13:25.396Z,2596
2017-06-12T08:14:05.830Z,2448
2017-06-12T08:14:46.376Z,2332
2017-06-12T08:15:26.871Z,2176
2017-06-12T08:16:07.380Z,2128
2017-06-12T08:16:47.788Z,2276
2017-06-12T08:17:28.289Z,2336
2017-06-12T08:18:08.818Z,2424
2017-06-12T08:18:49.279Z,2548
2017-06-12T08:19:29.768Z,2284
2017-06-12T08:20:10.239Z,1892
2017-06-12T08:20:50.779Z,1688
2017-06-12T08:21:31.237Z,1612
2017-06-12T08:22:11.785Z,1592
2017-06-12T08:22:52.239Z,1616
2017-06-12T08:23:32.797Z,1680
2017-06-12T08:24:13.286Z,1816
2017-06-12T08:24:53.775Z,2024
2017-06-12T08:25:34.308Z,2324
2017-06-12T08:26:15.716Z,2428
2017-06-12T08:26:56.227Z,2516
2017-06-12T08:27:36.699Z,2652
2017-06-12T08:28:17.336Z,2896
2017-06-12T08:28:57.906Z,3156
2017-06-12T08:29:38.339Z,3344
2017-06-12T08:30:18.850Z,3320
2017-06-12T08:30:59.361Z,3244
2017-06-12T08:31:40.099Z,3468
2017-06-12T08:32:20.570Z,3508
2017-06-12T08:33:01.048Z,3340
2017-06-12T08:33:41.501Z,3136
2017-06-12T08:34:22.020Z,2980
2017-06-12T08:35:02.637Z,2868
2017-06-12T08:35:43.115Z,2844
2017-06-12T08:36:23.579Z,2832
2017-06-12T08:37:04.104Z,2608
2017-06-12T08:37:44.629Z,2356
2017-06-12T08:38:25.119Z,2128
2017-06-12T08:39:05.608Z,2044
2017-06-12T08:39:46.313Z,2004
2017-06-12T08:40:26.876Z,1904
2017-06-12T08:41:07.362Z,1808
2017-06-12T08:41:47.826Z,1792
2017-06-12T08:42:28.370Z,1912
2017-06-12T08:43:08.838Z,2208
2017-06-12T08:43:49.428Z,2492
2017-06-12T08:44:29.896Z,2572
2017-06-12T08:45:10.428Z,2636
2017-06-12T08:45:50.914Z,2692
2017-06-12T08:46:31.404Z,2744
2017-06-12T08:47:11.934Z,2872
2017-06-12T08:47:52.395Z,3044
2017-06-12T08:48:33.318Z,3468
2017-06-12T08:49:13.770Z,3504
2017-06-12T08:49:54.304Z,3416
2017-06-12T08:50:34.821Z,3440
2017-06-12T08:51:15.327Z,4020
2017-06-12T08:51:55.896Z,4444
2017-06-12T08:52:36.365Z,4512
2017-06-12T08:53:16.879Z,4508
2017-06-12T08:53:57.379Z,4156
2017-06-12T08:54:37.899Z,3976
2017-06-12T08:55:18.427Z,3944
2017-06-12T08:55:58.949Z,3592
2017-06-12T08:56:39.413Z,3148
2017-06-12T08:57:19.900Z,2836
2017-06-12T08:58:00.425Z,2704
2017-06-12T08:58:40.910Z,2632
2017-06-12T08:59:21.604Z,2612
2017-06-12T09:00:02.095Z,2500
2017-06-12T09:00:42.618Z,2352
2017-06-12T09:01:23.092Z,2264
2017-06-12T09:02:03.567Z,2088
2017-06-12T09:02:44.110Z,1976
2017-06-12T09:03:24.814Z,2008
2017-06-12T09:04:05.317Z,2012
2017-06-12T09:04:45.844Z,2044
2017-06-12T09:05:26.417Z,2080
2017-06-12T09:06:07.012Z,2092
2017-06-12T09:06:47.558Z,2076
2017-06-12T09:07:28.029Z,2116
2017-06-12T09:08:08.578Z,2084
2017-06-12T09:08:49.064Z,2076
2017-06-12T09:09:29.562Z,2116
2017-06-12T09:10:10.077Z,2372
2017-06-12T09:10:50.554Z,2604
2017-06-12T09:11:31.063Z,2616
2017-06-12T09:12:11.616Z,2376
2017-06-12T09:12:52.045Z,2076
2017-06-12T09:13:32.587Z,1888
2017-06-12T09:14:13.066Z,1856
2017-06-12T09:14:53.612Z,1936
2017-06-12T09:15:34.160Z,2144
2017-06-12T09:16:14.667Z,2500
2017-06-12T09:16:55.179Z,2712
2017-06-12T09:17:35.647Z,2712
2017-06-12T09:18:16.287Z,2284
2017-06-12T09:18:56.758Z,1864
2017-06-12T09:19:37.267Z,1744
2017-06-12T09:20:17.781Z,1752
2017-06-12T09:20:58.291Z,1868
2017-06-12T09:21:38.774Z,1856
2017-06-12T09:22:19.262Z,1812
2017-06-12T09:22:59.781Z,1776
2017-06-12T09:23:40.301Z,1704
2017-06-12T09:24:20.820Z,1596
2017-06-12T09:25:01.367Z,1700
2017-06-12T09:25:41.852Z,1992
2017-06-12T09:26:22.376Z,2304
2017-06-12T09:27:02.902Z,2352
2017-06-12T09:27:43.349Z,2240
2017-06-12T09:28:23.808Z,2240
2017-06-12T09:29:04.381Z,2388
2017-06-12T09:29:44.826Z,2552
2017-06-12T09:30:25.314Z,2696